Draffin, Kentucky
Current Conditions -  °F | °C
As of 11:35 PM on Saturday 22 Nov 2014 (Local Time) from KPBX Reporting Station
Clear Clear  
Wind Chill: 50°   Ceiling: Unl
Heat Index: 50°   Visibility: 10mi
Dew Point: 24°   Wind: 8mph
Humidity: 36%   Direction: 160°SSE
Pressure: 30.14"   Gusts: NA
Location:  37.3089°N, 82.3418°W
Report Text: KPBX 230435Z AUTO 16007KT 130V190 10SM CLR 10/M05 A3014 RMK AO2 T01011046
Loading
Personal Weather Stations






























Interactive Weather Map New forecast layout! Learn more

10-Day Weather Forecast

Advertisements
Track Severe Weather on mobile